Time;durP1;ratioP1;P1;durP2;ratioP2;P2;SDS_P1;SDS_P2;PMS_P1;PMS_P2;Temp;Humidity;BMP_temperature;BMP_pressure;BME280_temperature;BME280_humidity;BME280_pressure;Samples;Min_cycle;Max_cycle;Signal;HPM_P1;HPM_P2
2022/04/17 00:01:37;;;;;;;10.82;9.05;;;;;;;9.32;100.00;90609.38;5010973;28;20026;-65
2022/04/17 00:04:04;;;;;;;12.93;9.45;;;;;;;9.39;100.00;90595.63;5010819;28;20045;-65
2022/04/17 00:06:29;;;;;;;9.90;8.25;;;;;;;9.40;100.00;90597.19;4993099;28;20381;-66
2022/04/17 00:08:55;;;;;;;11.23;9.10;;;;;;;9.34;100.00;90587.81;4993335;28;20129;-66
2022/04/17 00:11:20;;;;;;;11.32;9.20;;;;;;;9.25;100.00;90604.50;5010879;28;20053;-65
2022/04/17 00:13:48;;;;;;;12.35;8.85;;;;;;;9.19;100.00;90602.31;5010985;28;20030;-65
2022/04/17 00:16:13;;;;;;;16.02;9.25;;;;;;;9.12;100.00;90594.00;5010769;28;20030;-65
2022/04/17 00:18:39;;;;;;;10.68;9.48;;;;;;;9.14;100.00;90605.06;5010865;28;20042;-66
2022/04/17 00:21:08;;;;;;;10.25;8.65;;;;;;;9.02;100.00;90597.72;5013826;28;20026;-65
2022/04/17 00:23:33;;;;;;;9.57;8.55;;;;;;;8.97;100.00;90587.22;5014218;28;20036;-65
2022/04/17 00:25:59;;;;;;;10.60;8.90;;;;;;;8.99;100.00;90574.44;5014205;28;20022;-66
2022/04/17 00:28:24;;;;;;;12.70;9.10;;;;;;;8.99;100.00;90575.25;5014260;28;20057;-65
2022/04/17 00:30:50;;;;;;;11.73;9.43;;;;;;;8.92;100.00;90568.81;5014164;28;20030;-65
2022/04/17 00:33:15;;;;;;;13.23;8.90;;;;;;;8.84;100.00;90573.00;5014112;28;20091;-65
2022/04/17 00:35:43;;;;;;;16.08;9.52;;;;;;;8.95;100.00;90574.28;5014067;28;20088;-65
2022/04/17 00:38:08;;;;;;;9.38;8.20;;;;;;;8.89;100.00;90574.72;5013929;28;20380;-66
2022/04/17 00:40:34;;;;;;;11.95;9.60;;;;;;;8.92;100.00;90574.09;5014022;28;20534;-65
2022/04/17 00:42:59;;;;;;;11.63;9.30;;;;;;;8.92;100.00;90576.75;5013967;28;20040;-66
2022/04/17 00:45:25;;;;;;;11.10;9.82;;;;;;;8.88;100.00;90565.22;5013649;28;20454;-65
2022/04/17 00:47:51;;;;;;;12.88;10.30;;;;;;;8.84;100.00;90554.44;5013797;28;20096;-65
2022/04/17 00:50:17;;;;;;;12.02;10.43;;;;;;;8.81;100.00;90557.69;5013826;28;20025;-65
2022/04/17 00:52:44;;;;;;;12.68;9.40;;;;;;;8.87;100.00;90558.34;5013763;28;20034;-65
2022/04/17 00:55:11;;;;;;;12.05;10.55;;;;;;;8.84;100.00;90562.38;5013597;28;20033;-65
2022/04/17 00:57:37;;;;;;;15.88;9.95;;;;;;;8.77;100.00;90566.56;5013600;28;20128;-65
2022/04/17 01:00:05;;;;;;;17.75;10.55;;;;;;;8.74;100.00;90545.97;5013615;28;20095;-65
2022/04/17 01:02:31;;;;;;;12.27;10.77;;;;;;;8.68;100.00;90559.34;5013791;28;20062;-65
2022/04/17 01:04:56;;;;;;;15.80;10.65;;;;;;;8.64;100.00;90552.31;5013457;28;20069;-65
2022/04/17 01:07:23;;;;;;;14.25;11.35;;;;;;;8.66;100.00;90558.84;5013337;28;20176;-65
2022/04/17 01:09:50;;;;;;;13.07;10.50;;;;;;;8.67;100.00;90559.63;5013468;28;20562;-65
2022/04/17 01:12:17;;;;;;;16.67;11.02;;;;;;;8.65;100.00;90559.16;5013311;28;20049;-65
2022/04/17 01:14:44;;;;;;;15.50;10.80;;;;;;;8.62;100.00;90557.91;5013343;28;20033;-65
2022/04/17 01:17:11;;;;;;;12.77;9.65;;;;;;;8.55;100.00;90552.28;5013221;28;20030;-65
2022/04/17 01:19:39;;;;;;;14.00;10.82;;;;;;;8.56;100.00;90547.75;5013728;28;20029;-65
2022/04/17 01:22:10;;;;;;;13.02;10.27;;;;;;;8.52;100.00;90544.13;5013571;28;20029;-65
2022/04/17 01:27:22;;;;;;;12.73;10.25;;;;;;;8.51;100.00;90553.94;5013273;28;20168;-65
2022/04/17 01:29:47;;;;;;;11.75;10.45;;;;;;;8.51;100.00;90548.66;5013039;28;20097;-66
2022/04/17 01:32:14;;;;;;;14.38;10.95;;;;;;;8.56;100.00;90547.75;5012773;28;20108;-66
2022/04/17 01:34:40;;;;;;;11.95;10.05;;;;;;;8.54;100.00;90547.28;5013008;28;20123;-65
2022/04/17 01:37:06;;;;;;;11.55;10.25;;;;;;;8.52;100.00;90550.25;5012784;28;20061;-65
2022/04/17 01:39:31;;;;;;;11.48;10.27;;;;;;;8.47;100.00;90557.53;5012848;28;20025;-65
2022/04/17 01:41:58;;;;;;;14.27;10.30;;;;;;;8.45;100.00;90560.47;5012840;28;20113;-65
2022/04/17 01:44:25;;;;;;;13.50;10.02;;;;;;;8.51;100.00;90569.06;5012355;28;20531;-65
2022/04/17 01:46:52;;;;;;;13.90;10.43;;;;;;;8.51;100.00;90564.56;5012647;28;20044;-65
2022/04/17 01:49:18;;;;;;;12.02;10.70;;;;;;;8.51;100.00;90553.94;5012626;28;20112;-65
2022/04/17 01:51:45;;;;;;;13.27;11.50;;;;;;;8.40;100.00;90550.81;5012671;28;20115;-65
2022/04/17 01:54:15;;;;;;;13.55;11.68;;;;;;;8.38;100.00;90544.25;5012513;28;20033;-65
2022/04/17 01:56:44;;;;;;;12.80;11.05;;;;;;;8.37;100.00;90534.72;5012477;28;20037;-65
2022/04/17 01:59:11;;;;;;;15.75;11.63;;;;;;;8.39;100.00;90529.91;5012497;28;20092;-66
2022/04/17 02:01:38;;;;;;;15.50;11.98;;;;;;;8.39;100.00;90528.03;5012716;28;20404;-66
2022/04/17 02:04:05;;;;;;;18.00;11.98;;;;;;;8.34;100.00;90522.84;5012371;28;20026;-65
2022/04/17 02:06:31;;;;;;;13.77;12.02;;;;;;;8.36;100.00;90525.19;5012328;28;20038;-65
2022/04/17 02:08:57;;;;;;;13.70;12.02;;;;;;;8.32;100.00;90522.34;5012381;28;20491;-65
2022/04/17 02:11:24;;;;;;;14.10;11.75;;;;;;;8.38;100.00;90525.69;5012248;28;20101;-65
2022/04/17 02:13:50;;;;;;;20.95;13.45;;;;;;;8.40;100.00;90518.22;5012337;28;20111;-65
2022/04/17 02:16:19;;;;;;;22.20;14.30;;;;;;;8.40;100.00;90526.16;5012102;28;20493;-65
2022/04/17 02:18:45;;;;;;;20.95;14.52;;;;;;;8.32;100.00;90524.22;5142888;22;21031;-68
2022/04/17 02:21:13;;;;;;;23.20;15.02;;;;;;;8.33;100.00;90531.06;5012477;28;20107;-69
2022/04/17 02:23:39;;;;;;;22.30;14.82;;;;;;;8.33;100.00;90528.41;5012022;28;20498;-68
2022/04/17 02:26:05;;;;;;;19.10;13.98;;;;;;;8.18;100.00;90528.81;5012115;28;20057;-68
2022/04/17 02:28:34;;;;;;;18.70;14.43;;;;;;;8.10;100.00;90512.56;5011870;28;20449;-69
2022/04/17 02:31:03;;;;;;;22.60;15.70;;;;;;;8.04;100.00;90510.34;5012011;28;20091;-68
2022/04/17 02:33:29;;;;;;;25.10;17.40;;;;;;;8.00;100.00;90512.03;5011859;28;20057;-68
2022/04/17 02:35:55;;;;;;;23.00;16.65;;;;;;;7.90;100.00;90521.03;5011850;28;20470;-68
2022/04/17 02:38:21;;;;;;;22.10;16.80;;;;;;;7.76;100.00;90515.00;5011851;28;20495;-68
2022/04/17 02:40:47;;;;;;;19.90;13.95;;;;;;;7.78;100.00;90515.47;5011736;28;20064;-68
2022/04/17 02:43:12;;;;;;;17.70;15.32;;;;;;;7.76;100.00;90515.78;5011147;28;20466;-68
2022/04/17 02:45:37;;;;;;;18.98;15.40;;;;;;;7.80;100.00;90514.09;5011721;28;20026;-68
2022/04/17 02:48:04;;;;;;;20.83;16.95;;;;;;;7.91;100.00;90527.09;5011748;28;20111;-68
2022/04/17 02:50:29;;;;;;;20.35;16.75;;;;;;;7.96;100.00;90530.41;5011567;28;20022;-68
2022/04/17 02:52:55;;;;;;;20.08;16.90;;;;;;;7.92;100.00;90520.72;5011646;28;20038;-68
2022/04/17 02:55:21;;;;;;;18.65;15.50;;;;;;;7.92;100.00;90518.84;5011426;28;20072;-68
2022/04/17 02:57:46;;;;;;;21.58;16.58;;;;;;;7.84;100.00;90516.91;5011577;28;20491;-68
2022/04/17 03:00:12;;;;;;;19.08;15.60;;;;;;;7.77;100.00;90501.47;5011452;28;20107;-68
2022/04/17 03:05:36;;;;;;;22.50;15.95;;;;;;;7.67;100.00;90498.25;5011754;28;20084;-68
2022/04/17 03:08:02;;;;;;;19.17;14.75;;;;;;;7.66;100.00;90512.59;5011460;28;20026;-68
2022/04/17 03:10:27;;;;;;;24.83;16.65;;;;;;;7.64;100.00;90514.75;4993571;28;20125;-68
2022/04/17 03:12:53;;;;;;;20.92;16.38;;;;;;;7.54;100.00;90505.16;5011321;28;20101;-68
2022/04/17 03:15:18;;;;;;;22.23;18.17;;;;;;;7.51;100.00;90509.22;5011246;28;20414;-68
2022/04/17 03:17:44;;;;;;;23.38;18.15;;;;;;;7.40;100.00;90499.94;5011287;28;20025;-68
2022/04/17 03:20:10;;;;;;;25.40;19.77;;;;;;;7.46;100.00;90508.56;5011055;28;20061;-68
2022/04/17 03:22:39;;;;;;;25.75;19.83;;;;;;;7.38;100.00;90490.72;5011150;28;20036;-68
2022/04/17 03:25:05;;;;;;;26.27;21.15;;;;;;;7.37;100.00;90505.03;5011477;28;20026;-69
2022/04/17 03:27:31;;;;;;;25.13;18.10;;;;;;;7.25;100.00;90510.06;5011086;28;20384;-69
2022/04/17 03:29:57;;;;;;;30.45;19.75;;;;;;;7.18;100.00;90508.63;5011036;28;20037;-69
2022/04/17 03:32:22;;;;;;;27.95;20.58;;;;;;;7.17;100.00;90512.34;5011039;28;20026;-69
2022/04/17 03:34:47;;;;;;;26.15;20.65;;;;;;;7.04;100.00;90512.38;5010973;28;20030;-70
2022/04/17 03:37:16;;;;;;;27.73;21.58;;;;;;;6.97;100.00;90514.66;5009768;28;20392;-69
2022/04/17 03:39:42;;;;;;;27.30;20.63;;;;;;;6.79;100.00;90501.25;5010890;28;20037;-69
2022/04/17 03:42:07;;;;;;;62.70;43.65;;;;;;;6.85;100.00;90500.06;5009668;28;20034;-68
2022/04/17 03:44:33;;;;;;;32.33;21.63;;;;;;;6.91;100.00;90498.88;5011190;28;20037;-69
2022/04/17 03:46:59;;;;;;;32.08;22.40;;;;;;;6.95;100.00;90511.53;5010970;28;20049;-69
2022/04/17 03:49:25;;;;;;;28.10;21.25;;;;;;;6.83;100.00;90507.50;5010851;28;20045;-69
2022/04/17 03:51:50;;;;;;;50.67;33.20;;;;;;;6.87;100.00;90513.78;5010920;28;20026;-70
2022/04/17 03:54:16;;;;;;;36.15;24.92;;;;;;;6.84;100.00;90513.59;5012785;28;20033;-70
2022/04/17 03:56:43;;;;;;;35.60;24.48;;;;;;;6.87;100.00;90510.34;5014562;28;20498;-69
2022/04/17 03:59:09;;;;;;;41.65;28.23;;;;;;;6.72;100.00;90506.16;5014434;28;20048;-70
2022/04/17 04:01:34;;;;;;;32.85;24.38;;;;;;;6.87;100.00;90508.47;5014489;28;20552;-69
2022/04/17 04:04:00;;;;;;;43.92;30.77;;;;;;;6.85;100.00;90510.66;5014351;28;20107;-69
2022/04/17 04:06:25;;;;;;;35.63;26.08;;;;;;;6.81;100.00;90501.75;5012948;28;20034;-69
2022/04/17 04:08:51;;;;;;;45.50;31.45;;;;;;;6.83;100.00;90501.44;5014291;28;20034;-70
2022/04/17 04:11:17;;;;;;;38.95;26.80;;;;;;;6.80;100.00;90499.41;5014374;28;20483;-69
2022/04/17 04:13:43;;;;;;;45.88;32.10;;;;;;;6.71;100.00;90493.22;5014261;28;20030;-69
2022/04/17 04:16:09;;;;;;;36.63;25.27;;;;;;;6.77;100.00;90494.69;5014281;28;20022;-69
2022/04/17 04:18:34;;;;;;;34.92;25.13;;;;;;;6.73;100.00;90501.66;4996236;28;20415;-70
2022/04/17 04:21:00;;;;;;;38.97;26.45;;;;;;;6.79;100.00;90500.47;5014183;28;20113;-69
2022/04/17 04:23:26;;;;;;;33.45;24.40;;;;;;;6.67;100.00;90493.03;5014132;28;20491;-70
2022/04/17 04:25:51;;;;;;;34.97;24.13;;;;;;;6.66;100.00;90491.47;5013986;28;20029;-70
2022/04/17 04:28:33;;;;;;;34.78;24.80;;;;;;;6.69;100.00;90496.16;5013888;28;20026;-70
2022/04/17 04:31:01;;;;;;;33.08;23.75;;;;;;;6.66;100.00;90496.75;5014162;28;20163;-70
2022/04/17 04:33:27;;;;;;;32.03;23.15;;;;;;;6.69;100.00;90490.88;5013940;28;20026;-70
2022/04/17 04:35:52;;;;;;;36.65;25.00;;;;;;;6.69;100.00;90488.25;5013790;28;20380;-70
2022/04/17 04:38:18;;;;;;;40.33;26.70;;;;;;;6.72;100.00;90489.50;5013758;28;20030;-70
2022/04/17 04:40:43;;;;;;;56.42;36.83;;;;;;;6.62;100.00;90495.75;4996090;28;20509;-69
2022/04/17 04:43:09;;;;;;;39.33;28.08;;;;;;;6.72;100.00;90506.16;5013760;28;20026;-69
2022/04/17 04:51:16;;;;;;;37.13;25.15;;;;;;;6.64;100.00;90506.06;4991031;28;20060;-69
2022/04/17 04:53:42;;;;;;;30.83;22.20;;;;;;;6.43;100.00;90492.44;5013376;28;20531;-69
2022/04/17 04:56:08;;;;;;;52.17;33.03;;;;;;;6.60;100.00;90500.56;5013526;28;20042;-69
2022/04/17 04:58:34;;;;;;;33.88;24.50;;;;;;;6.34;100.00;90481.03;5013292;28;20030;-69
2022/04/17 05:00:59;;;;;;;38.50;26.73;;;;;;;6.47;100.00;90496.06;5013380;28;20036;-69
2022/04/17 05:03:25;;;;;;;31.98;21.83;;;;;;;6.50;100.00;90490.22;5012040;28;20033;-69
2022/04/17 05:05:51;;;;;;;35.22;24.40;;;;;;;6.38;100.00;90495.19;5012881;28;20034;-69
2022/04/17 05:08:18;;;;;;;38.00;25.40;;;;;;;6.43;100.00;90495.09;5013202;28;20487;-70
2022/04/17 05:10:44;;;;;;;42.85;28.52;;;;;;;6.46;100.00;90497.13;5013150;28;20388;-69
2022/04/17 05:13:09;;;;;;;175.10;79.60;;;;;;;6.47;100.00;90486.31;5013153;28;20104;-69
2022/04/17 05:15:35;;;;;;;45.45;29.50;;;;;;;6.45;100.00;90492.94;5013054;28;20033;-69
2022/04/17 05:18:00;;;;;;;32.83;23.10;;;;;;;6.46;100.00;90499.78;5013056;28;20026;-69
2022/04/17 05:20:26;;;;;;;40.97;24.55;;;;;;;6.45;100.00;90485.00;5012753;28;20065;-70
2022/04/17 05:22:56;;;;;;;42.67;27.98;;;;;;;6.46;100.00;90497.13;5013014;28;20108;-69
2022/04/17 05:25:24;;;;;;;46.35;28.75;;;;;;;6.41;100.00;90505.19;5012995;28;20041;-69
2022/04/17 05:27:49;;;;;;;43.47;27.92;;;;;;;6.33;100.00;90495.31;5012852;28;20407;-69
2022/04/17 05:30:15;;;;;;;44.92;28.58;;;;;;;6.44;100.00;90504.59;5013053;28;20034;-69
2022/04/17 05:32:40;;;;;;;40.88;24.60;;;;;;;6.45;100.00;90500.88;5012683;28;20415;-69
2022/04/17 05:35:06;;;;;;;28.20;19.98;;;;;;;6.40;100.00;90503.63;5012617;28;20121;-69
2022/04/17 05:37:31;;;;;;;46.78;31.00;;;;;;;6.44;100.00;90494.78;5012659;28;20030;-69
2022/04/17 05:39:57;;;;;;;30.15;20.55;;;;;;;6.47;100.00;90496.06;4994957;28;20033;-69
2022/04/17 05:42:22;;;;;;;74.25;37.85;;;;;;;6.48;100.00;90495.00;5012631;28;20105;-69
2022/04/17 05:44:49;;;;;;;42.55;25.45;;;;;;;6.37;100.00;90491.00;5012474;28;20030;-69
2022/04/17 05:47:14;;;;;;;37.83;24.77;;;;;;;6.34;100.00;90483.66;5012862;28;20026;-69
2022/04/17 05:49:40;;;;;;;33.15;22.65;;;;;;;6.33;100.00;90495.31;5012377;28;20038;-69
2022/04/17 05:52:06;;;;;;;33.95;21.95;;;;;;;6.27;100.00;90486.69;5012479;28;20018;-69
2022/04/17 05:54:32;;;;;;;119.95;73.05;;;;;;;6.26;100.00;90490.38;5012314;28;20030;-69
2022/04/17 05:56:58;;;;;;;65.07;41.70;;;;;;;6.20;100.00;90487.06;5011314;28;20411;-68
2022/04/17 05:59:23;;;;;;;41.95;27.02;;;;;;;6.10;100.00;90489.09;5012188;28;20046;-70
2022/04/17 06:01:48;;;;;;;53.70;33.15;;;;;;;6.05;100.00;90487.34;5012201;28;20041;-70
2022/04/17 06:04:14;;;;;;;48.70;28.60;;;;;;;6.10;100.00;90481.97;5012249;28;20030;-68
2022/04/17 06:06:39;;;;;;;44.88;28.20;;;;;;;6.22;100.00;90484.91;5012179;28;20026;-68
2022/04/17 06:09:05;;;;;;;74.95;46.20;;;;;;;6.36;100.00;90487.56;5012035;28;20037;-69
2022/04/17 06:11:30;;;;;;;64.80;43.00;;;;;;;6.28;100.00;90481.09;5010665;28;20030;-69
2022/04/17 06:13:56;;;;;;;34.13;23.80;;;;;;;6.24;100.00;90466.91;5011470;28;20034;-69
2022/04/17 06:16:21;;;;;;;49.08;32.78;;;;;;;6.31;100.00;90482.38;5011767;28;20036;-70
2022/04/17 06:18:47;;;;;;;49.60;32.00;;;;;;;6.32;100.00;90489.25;5011017;28;20049;-71
2022/04/17 06:21:12;;;;;;;29.02;18.70;;;;;;;6.21;100.00;90480.72;5012206;28;20406;-71
2022/04/17 06:23:39;;;;;;;48.63;28.98;;;;;;;6.16;100.00;90487.97;5011938;28;20034;-68
2022/04/17 06:26:06;;;;;;;22.92;16.48;;;;;;;6.17;100.00;90481.59;5011880;28;20088;-68
2022/04/17 06:28:32;;;;;;;25.08;17.88;;;;;;;6.12;100.00;90484.31;5011626;28;20439;-69
2022/04/17 06:30:58;;;;;;;24.50;17.98;;;;;;;6.00;100.00;90479.53;4991857;28;20297;-68
2022/04/17 06:33:23;;;;;;;40.40;27.42;;;;;;;6.03;100.00;90475.53;5009336;28;20096;-68
2022/04/17 06:35:49;;;;;;;44.55;30.48;;;;;;;6.20;100.00;90468.59;5002681;28;20410;-68
2022/04/17 06:38:15;;;;;;;26.95;19.02;;;;;;;6.14;100.00;90467.09;4991966;28;20022;-67
2022/04/17 06:40:41;;;;;;;27.98;17.05;;;;;;;6.07;100.00;90479.91;4991881;28;20022;-68
2022/04/17 06:43:08;;;;;;;24.88;16.58;;;;;;;6.06;100.00;90472.28;4991372;28;20038;-71
2022/04/17 06:45:39;;;;;;;20.58;14.43;;;;;;;6.03;100.00;90472.88;4999455;28;20480;-72
2022/04/17 06:48:16;;;;;;;26.23;18.25;;;;;;;6.06;100.00;90474.94;4991066;28;20057;-71
2022/04/17 06:50:43;;;;;;;18.98;14.00;;;;;;;6.12;100.00;90471.88;5002342;28;20030;-73
2022/04/17 06:53:08;;;;;;;21.98;15.32;;;;;;;6.26;100.00;90477.19;4998800;28;20065;-69
2022/04/17 06:55:34;;;;;;;18.90;14.88;;;;;;;6.24;100.00;90469.56;4998993;28;20512;-71
2022/04/17 06:57:59;;;;;;;17.38;12.05;;;;;;;6.33;100.00;90474.94;5002356;28;20403;-69
2022/04/17 07:00:25;;;;;;;19.05;14.77;;;;;;;6.42;100.00;90475.81;4997683;28;20079;-70
2022/04/17 07:02:50;;;;;;;22.38;16.85;;;;;;;6.45;100.00;90485.00;4973618;28;20092;-72
2022/04/17 07:05:16;;;;;;;18.67;14.52;;;;;;;6.37;100.00;90483.06;4993921;28;20029;-70
2022/04/17 07:07:42;;;;;;;114.47;73.60;;;;;;;6.49;100.00;90470.94;4994120;28;20093;-70
2022/04/17 07:10:10;;;;;;;14.75;11.40;;;;;;;6.66;100.00;90472.19;5004388;28;20477;-70
2022/04/17 07:12:35;;;;;;;13.32;10.02;;;;;;;6.44;100.00;90457.03;5011133;28;20033;-71
2022/04/17 07:15:03;;;;;;;11.90;9.57;;;;;;;6.51;100.00;90470.63;5010079;28;20025;-70
2022/04/17 07:17:36;;;;;;;11.90;10.30;;;;;;;6.55;100.00;90474.25;5010689;28;20037;-72
2022/04/17 07:20:07;;;;;;;14.57;10.45;;;;;;;6.69;100.00;90471.59;5009184;28;20129;-71
2022/04/17 07:22:34;;;;;;;13.32;8.48;;;;;;;6.83;100.00;90469.72;5010961;28;20038;-70
2022/04/17 07:25:01;;;;;;;10.38;7.22;;;;;;;6.80;100.00;90478.25;5011347;28;20045;-69
2022/04/17 07:27:47;;;;;;;69.75;47.72;;;;;;;6.74;100.00;90464.34;4993322;28;20412;-71
2022/04/17 07:30:18;;;;;;;7.50;6.53;;;;;;;6.95;100.00;90474.50;5014263;28;20484;-69
2022/04/17 07:32:47;;;;;;;11.45;8.93;;;;;;;6.83;100.00;90475.00;4996686;28;20585;-69
2022/04/17 07:35:15;;;;;;;10.45;7.60;;;;;;;6.76;100.00;90469.31;5014903;28;20056;-70
2022/04/17 07:37:40;;;;;;;6.90;5.45;;;;;;;6.60;100.00;90455.63;5014537;28;20025;-69
2022/04/17 07:40:15;;;;;;;18.75;14.15;;;;;;;6.73;100.00;90476.00;5014793;28;20030;-69
2022/04/17 07:42:42;;;;;;;9.32;6.97;;;;;;;6.69;100.00;90485.59;5013933;28;20056;-68
2022/04/17 07:45:08;;;;;;;7.05;6.10;;;;;;;6.60;100.00;90474.13;5008779;28;20026;-70
2022/04/17 07:47:34;;;;;;;7.47;6.72;;;;;;;6.55;100.00;90482.19;5013901;28;20049;-68
2022/04/17 07:49:59;;;;;;;9.50;7.60;;;;;;;6.56;100.00;90479.25;5010192;28;20069;-69
2022/04/17 07:52:25;;;;;;;8.27;7.40;;;;;;;6.56;100.00;90475.81;4994803;28;20026;-70
2022/04/17 07:54:50;;;;;;;15.55;11.15;;;;;;;6.71;100.00;90472.88;4994610;28;21002;-70
2022/04/17 07:57:16;;;;;;;8.18;6.85;;;;;;;6.55;100.00;90459.19;4994771;28;20033;-69
2022/04/17 07:59:41;;;;;;;8.57;6.90;;;;;;;6.55;100.00;90475.03;4999856;28;20030;-69
2022/04/17 08:02:28;;;;;;;12.60;9.57;;;;;;;6.49;100.00;90470.16;5002907;28;20037;-69
2022/04/17 08:04:54;;;;;;;14.25;9.90;;;;;;;6.51;100.00;90458.22;5012015;28;20466;-71
2022/04/17 08:07:20;;;;;;;10.50;8.18;;;;;;;6.44;100.00;90467.59;5013414;28;20749;-71
2022/04/17 08:09:46;;;;;;;8.40;7.45;;;;;;;6.60;100.00;90471.50;5014055;28;20030;-65
2022/04/17 08:12:12;;;;;;;23.00;16.73;;;;;;;6.53;100.00;90469.25;5014030;28;20034;-68
2022/04/17 08:14:37;;;;;;;27.13;17.75;;;;;;;6.57;100.00;90464.94;5013980;28;20022;-68
2022/04/17 08:17:03;;;;;;;20.17;15.50;;;;;;;6.72;100.00;90471.78;5013638;28;20022;-68
2022/04/17 08:19:32;;;;;;;16.95;13.00;;;;;;;6.64;100.00;90461.91;5013648;28;20050;-68
2022/04/17 08:22:02;;;;;;;46.22;25.73;;;;;;;6.70;100.00;90478.44;5013972;28;20026;-68
2022/04/17 08:24:30;;;;;;;61.80;25.85;;;;;;;6.66;100.00;90469.56;5013711;28;20175;-69
2022/04/17 08:26:58;;;;;;;63.70;30.25;;;;;;;6.72;100.00;90461.22;5013832;28;20038;-68
2022/04/17 08:29:23;;;;;;;24.15;16.65;;;;;;;6.76;100.00;90472.75;5011192;28;20018;-68
2022/04/17 08:31:49;;;;;;;30.27;21.15;;;;;;;6.75;100.00;90465.91;5013326;28;20109;-67
2022/04/17 08:34:14;;;;;;;28.67;19.98;;;;;;;6.85;100.00;90467.56;5004439;28;20022;-69
2022/04/17 08:36:40;;;;;;;23.40;17.52;;;;;;;6.89;100.00;90474.59;4992887;28;20503;-69
2022/04/17 08:39:05;;;;;;;51.47;33.97;;;;;;;6.76;100.00;90474.63;5003431;28;20034;-67
2022/04/17 08:41:33;;;;;;;29.48;19.52;;;;;;;6.80;100.00;90471.09;5002885;28;20105;-67
2022/04/17 08:43:58;;;;;;;41.20;26.58;;;;;;;6.64;100.00;90461.13;5002039;28;20416;-67
2022/04/17 08:46:24;;;;;;;32.85;23.02;;;;;;;6.73;100.00;90475.22;5003010;28;20010;-68
2022/04/17 08:48:51;;;;;;;30.90;23.35;;;;;;;6.65;100.00;90468.78;5003407;28;20671;-68
2022/04/17 08:51:17;;;;;;;48.90;33.70;;;;;;;6.76;100.00;90470.09;4996695;28;20023;-72
2022/04/17 08:53:45;;;;;;;41.33;30.58;;;;;;;6.61;100.00;90463.28;4993814;28;20030;-68
2022/04/17 08:56:10;;;;;;;30.75;24.48;;;;;;;6.76;100.00;90462.19;4993699;28;20096;-69
2022/04/17 08:58:36;;;;;;;179.77;108.97;;;;;;;6.79;100.00;90458.19;5005766;28;20455;-69
2022/04/17 09:01:01;;;;;;;40.72;26.85;;;;;;;6.88;100.00;90459.81;5013015;28;20404;-69
2022/04/17 09:03:28;;;;;;;29.48;21.90;;;;;;;6.79;100.00;90443.09;5013071;28;20113;-68
2022/04/17 09:05:53;;;;;;;19.63;13.50;;;;;;;6.97;100.00;90451.19;5013081;28;20026;-69
2022/04/17 09:08:21;;;;;;;22.88;17.83;;;;;;;7.15;100.00;90453.69;5013030;28;20096;-69
2022/04/17 09:10:57;;;;;;;25.02;17.15;;;;;;;7.35;100.00;90444.47;5013131;28;20553;-70
2022/04/17 09:13:29;;;;;;;37.03;21.77;;;;;;;7.46;100.00;90445.03;5013187;28;20034;-69
2022/04/17 09:15:55;;;;;;;26.80;16.48;;;;;;;7.43;100.00;90435.06;5012482;28;20049;-67
2022/04/17 09:18:21;;;;;;;22.25;15.48;;;;;;;7.19;100.00;90422.13;5012770;28;20088;-68
2022/04/17 09:20:47;;;;;;;16.65;13.02;;;;;;;7.19;100.00;90435.34;5012456;28;20174;-68
2022/04/17 09:23:13;;;;;;;19.67;13.68;;;;;;;7.17;100.00;90432.22;5011702;28;20026;-68
2022/04/17 09:25:38;;;;;;;21.10;14.52;;;;;;;7.46;100.00;90429.16;5012573;28;20392;-65
2022/04/17 09:28:06;;;;;;;46.63;34.15;;;;;;;7.91;100.00;90421.16;5011859;28;20105;-67
2022/04/17 09:30:39;;;;;;;52.33;36.63;;;;;;;8.33;100.00;90414.47;5012416;28;20108;-67
2022/04/17 09:33:12;;;;;;;16.92;13.50;;;;;;;8.40;100.00;90409.53;5012207;28;20018;-68
2022/04/17 09:35:39;;;;;;;18.10;13.65;;;;;;;7.91;100.00;90411.34;5011195;28;20103;-70
2022/04/17 09:38:08;;;;;;;23.83;17.80;;;;;;;8.31;100.00;90401.53;5012223;28;20061;-71
2022/04/17 09:40:36;;;;;;;9.05;6.78;;;;;;;8.27;100.00;90405.09;5012330;28;20119;-70
2022/04/17 09:43:12;;;;;;;14.32;10.98;;;;;;;8.54;100.00;90398.81;5012414;28;20053;-69
2022/04/17 09:46:00;;;;;;;37.13;23.10;;;;;;;8.64;100.00;90391.34;5011935;28;20026;-69
2022/04/17 09:48:44;;;;;;;18.13;14.52;;;;;;;8.73;100.00;90391.38;5012215;28;20029;-68
2022/04/17 09:51:26;;;;;;;13.02;8.90;;;;;;;8.48;100.00;90384.91;5012088;28;20026;-67
2022/04/17 09:54:05;;;;;;;17.80;14.65;;;;;;;8.27;100.00;90387.34;5011854;28;20029;-68
2022/04/17 09:56:35;;;;;;;15.40;11.40;;;;;;;8.36;100.00;90397.97;4994781;28;20029;-71
2022/04/17 09:59:17;;;;;;;13.43;11.48;;;;;;;8.62;100.00;90396.19;4999848;28;20179;-68
2022/04/17 10:01:45;;;;;;;10.50;7.65;;;;;;;8.27;100.00;90389.22;4991825;28;20116;-68
2022/04/17 10:04:12;;;;;;;18.10;12.23;;;;;;;8.44;100.00;90388.50;4992069;28;20117;-68
2022/04/17 10:06:38;;;;;;;23.35;19.63;;;;;;;8.27;100.00;90390.00;4992482;28;20054;-72
2022/04/17 10:09:14;;;;;;;22.92;19.15;;;;;;;8.01;100.00;90374.00;4992420;28;20033;-70
2022/04/17 10:11:40;;;;;;;29.70;21.63;;;;;;;7.58;100.00;90388.91;4974750;28;20121;-71
2022/04/17 10:14:07;;;;;;;51.30;41.38;;;;;;;7.67;100.00;90387.09;4991831;28;20540;-70
2022/04/17 10:16:34;;;;;;;86.03;45.97;;;;;;;7.74;100.00;90387.44;4991442;28;20068;-70
2022/04/17 10:19:05;;;;;;;13.30;11.90;;;;;;;7.64;100.00;90382.41;4991655;28;20420;-70
2022/04/17 10:21:35;;;;;;;13.43;11.35;;;;;;;7.59;100.00;90374.59;4991986;28;20042;-69
2022/04/17 10:24:04;;;;;;;25.27;21.88;;;;;;;7.94;100.00;90357.00;4991923;28;20100;-71
2022/04/17 10:26:37;;;;;;;26.85;22.33;;;;;;;7.70;100.00;90373.22;4991783;28;20528;-69
2022/04/17 10:29:05;;;;;;;;;;;;;;;7.87;100.00;90360.06;4991903;28;20042;-70
2022/04/17 10:31:49;;;;;;;20.02;16.83;;;;;;;7.59;100.00;90348.13;4991430;28;19917;-69
2022/04/17 10:34:20;;;;;;;27.10;19.83;;;;;;;7.51;100.00;90361.00;4991571;28;20390;-68
2022/04/17 10:37:10;;;;;;;34.83;25.20;;;;;;;7.58;100.00;90360.59;4991723;28;20105;-66
2022/04/17 10:39:41;;;;;;;32.03;23.10;;;;;;;7.90;100.00;90345.47;4991639;28;20038;-68
2022/04/17 10:42:08;;;;;;;21.73;14.82;;;;;;;8.14;100.00;90348.47;4991315;28;20050;-69
2022/04/17 10:44:38;;;;;;;16.60;11.80;;;;;;;8.06;100.00;90339.44;4991470;28;20061;-66
2022/04/17 10:47:05;;;;;;;11.48;8.25;;;;;;;8.04;100.00;90336.28;4991250;28;20069;-66
2022/04/17 10:49:32;;;;;;;22.35;15.85;;;;;;;7.99;100.00;90344.38;4991400;28;20137;-67
2022/04/17 10:51:59;;;;;;;20.40;14.75;;;;;;;7.86;100.00;90347.91;4991409;28;20034;-66
2022/04/17 10:54:45;;;;;;;13.13;9.73;;;;;;;7.64;100.00;90355.94;4991031;28;20048;-66
2022/04/17 10:57:10;;;;;;;7.03;5.95;;;;;;;7.59;100.00;90348.91;4991437;28;20069;-66
2022/04/17 10:59:36;;;;;;;9.70;7.32;;;;;;;7.37;100.00;90349.72;4991289;28;20050;-69
2022/04/17 11:02:08;;;;;;;13.93;11.32;;;;;;;7.26;100.00;90359.00;4990902;28;20504;-70
2022/04/17 11:04:40;;;;;;;15.32;10.57;;;;;;;7.25;100.00;90346.06;5005834;28;20034;-70
2022/04/17 11:07:06;;;;;;;11.98;9.90;;;;;;;7.22;100.00;90360.66;5010707;28;20476;-69
2022/04/17 11:09:33;;;;;;;18.55;13.60;;;;;;;7.31;100.00;90352.78;5010547;28;20065;-69
2022/04/17 11:12:06;;;;;;;16.40;13.35;;;;;;;7.20;100.00;90353.03;5010408;28;20025;-70
2022/04/17 11:14:32;;;;;;;29.83;23.48;;;;;;;7.46;100.00;90345.25;4986285;28;20044;-70
2022/04/17 11:17:20;;;;;;;16.42;12.32;;;;;;;7.56;100.00;90346.84;5010498;28;20029;-70
2022/04/17 11:19:47;;;;;;;21.88;16.42;;;;;;;7.71;100.00;90343.03;4989768;28;20054;-69
2022/04/17 11:22:16;;;;;;;14.70;11.80;;;;;;;7.70;100.00;90347.53;4991140;28;20507;-69
2022/04/17 11:24:54;;;;;;;12.20;8.40;;;;;;;7.54;100.00;90342.94;4991072;28;20154;-72
2022/04/17 11:27:31;;;;;;;10.23;7.18;;;;;;;7.42;100.00;90336.38;4990903;28;20508;-69
2022/04/17 11:29:58;;;;;;;8.15;6.75;;;;;;;7.43;100.00;90340.56;4990602;28;20046;-69
2022/04/17 11:32:27;;;;;;;9.90;6.35;;;;;;;7.12;100.00;90340.56;4991194;28;20074;-69